Latest Weather Observations for Portland Harbour

IDV60801

Issued at 6:02 pm EST Monday 25 July 2016 (issued every 30 minutes, with the page automatically refreshed every 10 minutes)

About weather observations | Map of weather stations | Latest weather observations for VIC | Other Formats
Station Details ID: 090192 Name: PORTLAND NTC AWS Lat: -38.34 Lon: 141.61 Height: 0.0 m
Data from the previous 72 hours. | See also: Recent months for locations in Victoria
Date/Time
EST
Temp
°C
App
Temp
°C
Dew
Point
°C
Rel
Hum
%
Delta-T
°C
Wind Press
QNH
hPa
Press
MSL
hPa
Rain since
9am
mm
Dir  Spd
km/h
Gust
km/h
Spd
kts
Gust
kts
25/06:00pm 9.8 - - - - W 41 65 22 35 1002.6 1002.6 -
25/05:30pm 9.1 - - - - W 28 50 15 27 1002.4 1002.4 -
25/05:00pm 10.6 - - - - W 41 65 22 35 1001.5 1001.5 -
25/04:30pm 11.1 - - - - W 44 80 24 43 1001.0 1001.0 -
25/04:00pm 11.4 - - - - W 43 63 23 34 1000.0 1000.0 -
25/03:49pm 11.2 - - - - WNW 37 67 20 36 999.9 999.9 -
25/03:31pm 10.2 - - - - W 30 48 16 26 1000.2 1000.2 -
25/03:30pm 10.1 - - - - W 32 48 17 26 1000.3 1000.3 -
25/03:12pm 9.8 - - - - W 33 63 18 34 1000.7 1000.7 -
25/03:00pm 10.5 - - - - WNW 30 44 16 24 1000.0 1000.0 -
25/02:30pm 8.9 - - - - WNW 44 70 24 38 1000.2 1000.2 -
25/02:17pm 10.4 - - - - NW 35 59 19 32 1000.9 1000.9 -
25/02:01pm 11.0 - - - - NNW 35 54 19 29 999.2 999.2 -
25/02:00pm 11.1 - - - - NNW 35 48 19 26 999.3 999.3 -
25/01:30pm 11.6 - - - - NNW 37 54 20 29 999.9 999.9 -
25/01:04pm 11.8 - - - - NNW 39 59 21 32 1000.7 1000.7 -
25/01:00pm 11.9 - - - - NNW 41 59 22 32 1000.9 1000.9 -
25/12:31pm 12.4 - - - - NNW 37 57 20 31 1001.9 1001.9 -
25/12:30pm 12.4 - - - - NNW 37 56 20 30 1002.0 1002.0 -
25/12:25pm 12.5 - - - - NNW 35 56 19 30 1002.1 1002.1 -
25/12:00pm 12.3 - - - - NNW 35 50 19 27 1003.2 1003.2 -
25/11:30am 12.1 - - - - NNW 33 52 18 28 1004.0 1004.0 -
25/11:00am 11.7 - - - - NW 26 41 14 22 1004.9 1004.9 -
25/10:30am 11.1 - - - - NNW 24 33 13 18 1005.4 1005.4 -
25/10:00am 9.9 - - - - NNW 22 30 12 16 1005.9 1005.9 -
25/09:30am 9.5 - - - - NNW 22 32 12 17 1006.3 1006.3 -
25/09:00am 9.8 - - - - NNW 17 26 9 14 1006.7 1006.7 -
25/08:30am 10.1 - - - - NW 15 24 8 13 1007.0 1007.0 -
25/08:00am 10.4 - - - - WNW 13 20 7 11 1007.2 1007.2 -
25/07:30am 10.7 - - - - W 17 28 9 15 1007.2 1007.2 -
25/07:00am 10.4 - - - - W 15 20 8 11 1007.1 1007.1 -
25/06:30am 10.5 - - - - W 22 32 12 17 1006.9 1006.9 -
25/06:00am 11.0 - - - - W 19 32 10 17 1006.5 1006.5 -
25/05:30am 10.7 - - - - SW 26 37 14 20 1006.3 1006.3 -
25/05:00am 10.4 - - - - WSW 32 50 17 27 1005.8 1005.8 -
25/04:51am 10.5 - - - - SW 28 50 15 27 1005.9 1005.9 -
25/04:30am 10.5 - - - - WSW 24 41 13 22 1005.4 1005.4 -
25/04:09am 10.7 - - - - WSW 30 50 16 27 1005.2 1005.2 -
25/04:00am 11.3 - - - - WSW 30 44 16 24 1005.0 1005.0 -
25/03:32am 11.6 - - - - WSW 28 46 15 25 1004.6 1004.6 -
25/03:30am 11.5 - - - - WSW 26 44 14 24 1004.6 1004.6 -
25/03:00am 11.1 - - - - WSW 26 43 14 23 1004.3 1004.3 -
25/02:42am 10.9 - - - - WSW 28 48 15 26 1004.3 1004.3 -
25/02:30am 10.2 - - - - W 20 28 11 15 1004.2 1004.2 -
25/02:00am 10.6 - - - - W 19 32 10 17 1003.8 1003.8 -
25/01:30am 9.0 - - - - NW 17 24 9 13 1003.6 1003.6 -
25/01:00am 9.1 - - - - NNW 19 28 10 15 1003.3 1003.3 -
25/12:30am 9.1 - - - - NW 17 26 9 14 1003.3 1003.3 -
25/12:00am 8.4 - - - - NW 19 28 10 15 1003.2 1003.2 -
 
Date/Time
EST
Temp
°C
App
Temp
°C
Dew
Point
°C
Rel
Hum
%
Delta-T
°C
Wind Press
QNH
hPa
Press
MSL
hPa
Rain since
9am
mm
Dir  Spd
km/h
Gust
km/h
Spd
kts
Gust
kts
24/11:30pm 8.4 - - - - NW 17 26 9 14 1002.9 1002.9 -
24/11:00pm 8.4 - - - - NW 17 26 9 14 1002.6 1002.6 -
24/10:30pm 8.1 - - - - NNW 30 44 16 24 1002.2 1002.2 -
24/10:00pm 8.2 - - - - NW 26 39 14 21 1002.1 1002.1 -
24/09:30pm 8.3 - - - - NNW 26 41 14 22 1001.7 1001.7 -
24/09:00pm 8.3 - - - - NNW 24 33 13 18 1001.7 1001.7 -
24/08:30pm 8.7 - - - - NNW 28 37 15 20 1001.0 1001.0 -
24/08:00pm 8.7 - - - - NNW 26 37 14 20 1001.2 1001.2 -
24/07:30pm 9.0 - - - - NNW 24 35 13 19 1000.8 1000.8 -
24/07:00pm 8.7 - - - - NNW 26 35 14 19 1000.5 1000.5 -
24/06:30pm 8.8 - - - - NNW 20 33 11 18 1000.1 1000.1 -
24/06:00pm 9.0 - - - - NNW 26 35 14 19 999.7 999.7 -
24/05:30pm 9.1 - - - - NNW 30 43 16 23 999.5 999.5 -
24/05:00pm 9.3 - - - - NNW 32 43 17 23 999.6 999.6 -
24/04:30pm 9.7 - - - - NNW 32 44 17 24 999.6 999.6 -
24/04:12pm 9.7 - - - - NNW 32 52 17 28 999.5 999.5 -
24/04:00pm 10.0 - - - - NNW 33 44 18 24 999.5 999.5 -
24/03:30pm 10.3 - - - - NNW 39 61 21 33 999.5 999.5 -
24/03:18pm 10.5 - - - - N 37 57 20 31 999.6 999.6 -
24/03:00pm 10.3 - - - - N 33 41 18 22 999.6 999.6 -
24/02:30pm 9.9 - - - - N 30 37 16 20 1000.3 1000.3 -
24/02:00pm 9.9 - - - - N 35 50 19 27 1001.1 1001.1 -
24/01:30pm 9.8 - - - - N 44 56 24 30 1001.5 1001.5 -
24/01:00pm 10.2 - - - - N 44 59 24 32 1002.4 1002.4 -
24/12:30pm 9.9 - - - - N 41 56 22 30 1002.9 1002.9 -
24/12:00pm 10.2 - - - - N 37 54 20 29 1003.5 1003.5 -
24/11:30am 9.8 - - - - N 35 44 19 24 1004.3 1004.3 -
24/11:00am 9.3 - - - - NNW 39 54 21 29 1005.0 1005.0 -
24/10:30am 8.8 - - - - N 32 41 17 22 1005.5 1005.5 -
24/10:00am 8.6 - - - - N 30 43 16 23 1005.8 1005.8 -
24/09:30am 7.8 - - - - NNW 30 41 16 22 1006.1 1006.1 -
24/09:00am 7.3 - - - - NNW 26 35 14 19 1006.4 1006.4 -
24/08:30am 7.0 - - - - NNW 26 32 14 17 1006.8 1006.8 -
24/08:00am 6.6 - - - - NNW 24 33 13 18 1007.0 1007.0 -
24/07:30am 6.4 - - - - NNW 24 32 13 17 1007.1 1007.1 -
24/07:00am 6.4 - - - - NNW 22 32 12 17 1007.1 1007.1 -
24/06:30am 6.5 - - - - NNW 22 28 12 15 1007.3 1007.3 -
24/06:00am 6.5 - - - - NNW 22 28 12 15 1007.5 1007.5 -
24/05:30am 6.5 - - - - NNW 22 30 12 16 1007.7 1007.7 -
24/05:00am 6.4 - - - - NNW 22 28 12 15 1008.1 1008.1 -
24/04:30am 6.6 - - - - NNW 19 24 10 13 1008.5 1008.5 -
24/04:00am 6.6 - - - - NNW 20 30 11 16 1008.8 1008.8 -
24/03:30am 6.8 - - - - NNW 20 28 11 15 1009.3 1009.3 -
24/03:00am 6.5 - - - - NNW 19 24 10 13 1009.9 1009.9 -
24/02:30am 6.8 - - - - NNW 22 28 12 15 1010.2 1010.2 -
24/02:00am 7.3 - - - - NNW 19 26 10 14 1010.3 1010.3 -
24/01:30am 6.6 - - - - NW 22 32 12 17 1010.4 1010.4 -
24/01:00am 6.3 - - - - NW 22 33 12 18 1010.8 1010.8 -
24/12:30am 6.6 - - - - NW 17 26 9 14 1010.8 1010.8 -
24/12:00am 6.6 - - - - NW 19 28 10 15 1011.0 1011.0 -
 
Date/Time
EST
Temp
°C
App
Temp
°C
Dew
Point
°C
Rel
Hum
%
Delta-T
°C
Wind Press
QNH
hPa
Press
MSL
hPa
Rain since
9am
mm
Dir  Spd
km/h
Gust
km/h
Spd
kts
Gust
kts
23/11:30pm 6.0 - - - - WNW 9 17 5 9 1011.4 1011.4 -
23/11:00pm 6.2 - - - - NW 9 13 5 7 1011.4 1011.4 -
23/10:30pm 6.7 - - - - NW 11 15 6 8 1011.7 1011.7 -
23/10:00pm 7.1 - - - - NW 19 24 10 13 1011.8 1011.8 -
23/09:30pm 7.1 - - - - NW 17 24 9 13 1011.8 1011.8 -
23/09:00pm 7.2 - - - - WNW 11 17 6 9 1011.9 1011.9 -
23/08:30pm 7.7 - - - - NNW 20 24 11 13 1011.7 1011.7 -
23/08:00pm 8.1 - - - - WNW 6 7 3 4 1011.8 1011.8 -
23/07:30pm 8.2 - - - - NW 9 11 5 6 1011.6 1011.6 -
23/07:00pm 8.2 - - - - WNW 9 15 5 8 1011.3 1011.3 -
23/06:30pm 9.1 - - - - WSW 13 19 7 10 1010.8 1010.8 -
23/06:00pm 9.5 - - - - SW 15 26 8 14 1010.5 1010.5 -
23/05:30pm 9.5 - - - - W 13 22 7 12 1010.4 1010.4 -
23/05:00pm 9.1 - - - - W 17 24 9 13 1010.2 1010.2 -
23/04:30pm 9.3 - - - - WSW 15 28 8 15 1010.2 1010.2 -
23/04:00pm 8.5 - - - - SW 28 46 15 25 1010.2 1010.2 -
23/03:30pm 10.5 - - - - WSW 30 41 16 22 1009.5 1009.5 -
23/03:00pm 10.1 - - - - WSW 32 56 17 30 1009.3 1009.3 -
23/02:43pm 10.6 - - - - WSW 33 54 18 29 1008.8 1008.8 -
23/02:30pm 10.8 - - - - WSW 35 52 19 28 1008.8 1008.8 -
23/02:01pm 10.5 - - - - WSW 33 54 18 29 1008.4 1008.4 -
23/02:00pm 10.6 - - - - WSW 32 46 17 25 1008.5 1008.5 -
23/01:30pm 10.8 - - - - WSW 37 56 20 30 1008.2 1008.2 -
23/01:25pm 10.7 - - - - WSW 32 56 17 30 1008.3 1008.3 -
23/01:02pm 8.2 - - - - W 24 54 13 29 1008.6 1008.6 -
23/01:00pm 9.1 - - - - W 20 33 11 18 1008.5 1008.5 -
23/12:30pm 10.0 - - - - WSW 28 46 15 25 1008.2 1008.2 -
23/12:03pm 10.3 - - - - WSW 28 50 15 27 1008.2 1008.2 -
23/12:00pm 9.6 - - - - W 22 46 12 25 1008.3 1008.3 -
23/11:35am 9.9 - - - - WSW 37 80 20 43 1008.2 1008.2 -
23/11:34am 10.3 - - - - WSW 35 56 19 30 1008.2 1008.2 -
23/11:30am 10.2 - - - - WSW 35 48 19 26 1008.1 1008.1 -
23/11:00am 8.2 - - - - WSW 43 72 23 39 1008.4 1008.4 -
23/10:32am 10.5 - - - - WSW 30 56 16 30 1007.6 1007.6 -
23/10:30am 10.6 - - - - WSW 24 56 13 30 1007.4 1007.4 -
23/10:00am 9.4 - - - - WSW 32 70 17 38 1007.3 1007.3 -
23/09:32am 8.9 - - - - SW 33 52 18 28 1007.0 1007.0 -
23/09:30am 8.9 - - - - SW 32 44 17 24 1007.0 1007.0 -
23/09:03am 10.0 - - - - WSW 35 54 19 29 1006.4 1006.4 -
23/09:00am 9.9 - - - - SW 37 54 20 29 1006.4 1006.4 -
23/08:30am 9.0 - - - - WSW 39 63 21 34 1005.8 1005.8 -
23/08:04am 9.5 - - - - SW 39 57 21 31 1005.4 1005.4 -
23/08:00am 9.3 - - - - SW 39 54 21 29 1005.4 1005.4 -
23/07:34am 8.2 - - - - WSW 33 54 18 29 1004.8 1004.8 -
23/07:30am 8.0 - - - - WSW 35 52 19 28 1004.8 1004.8 -
23/07:16am 9.1 - - - - SW 35 61 19 33 1004.7 1004.7 -
23/07:00am 9.2 - - - - SW 39 56 21 30 1004.3 1004.3 -
23/06:30am 9.9 - - - - SW 43 69 23 37 1003.6 1003.6 -
23/06:00am 9.8 - - - - SW 41 63 22 34 1003.2 1003.2 -
23/05:33am 9.9 - - - - SW 39 57 21 31 1002.5 1002.5 -
23/05:30am 10.0 - - - - SW 41 57 22 31 1002.4 1002.4 -
23/05:04am 9.9 - - - - SW 39 61 21 33 1001.9 1001.9 -
23/05:00am 9.8 - - - - SW 39 57 21 31 1001.8 1001.8 -
23/04:31am 10.1 - - - - SW 48 67 26 36 1000.9 1000.9 -
23/04:30am 10.0 - - - - SW 46 65 25 35 1000.9 1000.9 -
23/04:17am 9.6 - - - - SW 46 80 25 43 1000.6 1000.6 -
23/04:15am 9.1 - - - - SW 46 80 25 43 1000.5 1000.5 -
23/04:09am 9.3 - - - - SW 44 80 24 43 1000.7 1000.7 -
23/04:01am 9.7 - - - - SW 32 56 17 30 1000.1 1000.1 -
23/04:00am 9.6 - - - - SW 30 43 16 23 1000.1 1000.1 -
23/03:32am 9.8 - - - - SW 43 63 23 34 999.7 999.7 -
23/03:30am 9.7 - - - - SW 41 57 22 31 999.6 999.6 -
23/03:00am 9.5 - - - - SW 44 72 24 39 999.0 999.0 -
23/02:59am 9.5 - - - - SW 44 72 24 39 999.0 999.0 -
23/02:32am 8.9 - - - - SW 28 52 15 28 998.5 998.5 -
23/02:30am 9.0 - - - - WSW 28 43 15 23 998.5 998.5 -
23/02:01am 9.9 - - - - SW 43 61 23 33 997.7 997.7 -
23/02:00am 10.1 - - - - SW 43 59 23 32 997.6 997.6 -
23/01:30am 9.8 - - - - SW 28 50 15 27 996.8 996.8 -
23/01:29am 9.8 - - - - SW 26 50 14 27 996.7 996.7 -
23/01:25am 9.9 - - - - SW 22 44 12 24 996.6 996.6 -
23/01:00am 9.1 - - - - WSW 17 24 9 13 995.7 995.7 -
23/12:30am 9.2 - - - - W 13 26 7 14 995.3 995.3 -
23/12:00am 9.0 - - - - W 15 19 8 10 994.6 994.6 -
 
Date/Time
EST
Temp
°C
App
Temp
°C
Dew
Point
°C
Rel
Hum
%
Delta-T
°C
Wind Press
QNH
hPa
Press
MSL
hPa
Rain since
9am
mm
Dir  Spd
km/h
Gust
km/h
Spd
kts
Gust
kts
22/11:30pm 8.7 - - - - SW 20 30 11 16 994.4 994.4 -
22/11:00pm 8.8 - - - - SW 24 35 13 19 993.6 993.6 -
22/10:30pm 9.0 - - - - SW 33 46 18 25 993.0 993.0 -
22/10:08pm 9.0 - - - - SW 41 65 22 35 991.8 991.8 -
22/10:00pm 10.0 - - - - WNW 33 56 18 30 991.2 991.2 -
22/09:58pm 10.0 - - - - NW 32 56 17 30 991.0 991.0 -
22/09:30pm 9.9 - - - - NW 22 37 12 20 991.0 991.0 -
22/09:17pm 9.8 - - - - NNW 28 46 15 25 991.3 991.3 -
22/09:00pm 9.9 - - - - NNW 22 33 12 18 991.4 991.4 -
22/08:30pm 9.9 - - - - N 19 22 10 12 992.0 992.0 -
22/08:00pm 9.7 - - - - NNW 17 20 9 11 992.6 992.6 -
22/07:30pm 9.5 - - - - WNW 11 19 6 10 992.8 992.8 -
22/07:00pm 10.4 - - - - NW 11 17 6 9 993.3 993.3 -
22/06:30pm 10.9 - - - - NNW 20 28 11 15 993.4 993.4 -

Other Formats:

Comma delimited format used in spreadsheet applications
http://www.bom.gov.au/fwo/IDV60801/IDV60801.95826.axf

JavaScript Object Notation format (JSON) in row-major order
http://www.bom.gov.au/fwo/IDV60801/IDV60801.95826.json